Time;durP1;ratioP1;P1;durP2;ratioP2;P2;SDS_P1;SDS_P2;PMS_P1;PMS_P2;Temp;Humidity;BMP_temperature;BMP_pressure;BME280_temperature;BME280_humidity;BME280_pressure;Samples;Min_cycle;Max_cycle;Signal;HPM_P1;HPM_P2
2022/11/18 00:01:09;;;;;;;9.90;3.90;;;;;;;8.11;92.33;99437.56;4996451;28;20034;-74
2022/11/18 00:03:38;;;;;;;9.48;3.60;;;;;;;8.06;92.17;99439.50;4987612;28;20885;-75
2022/11/18 00:06:16;;;;;;;9.15;3.65;;;;;;;8.01;92.26;99439.69;4982737;28;20031;-74
2022/11/18 00:08:44;;;;;;;12.73;3.88;;;;;;;7.95;91.91;99447.84;4990966;28;20053;-75
2022/11/18 00:14:21;;;;;;;12.27;4.07;;;;;;;7.82;92.31;99447.50;4990603;28;20051;-75
2022/11/18 00:16:57;;;;;;;9.90;3.67;;;;;;;7.75;92.21;99453.91;4986556;28;20114;-75
2022/11/18 00:19:44;;;;;;;10.98;2.88;;;;;;;7.68;92.08;99463.78;4990625;28;20043;-75
2022/11/18 00:22:12;;;;;;;6.05;2.50;;;;;;;7.60;92.21;99456.25;4989738;28;20055;-75
2022/11/18 00:24:39;;;;;;;6.38;2.10;;;;;;;7.57;92.50;99468.63;4995140;28;20062;-75
2022/11/18 00:27:07;;;;;;;5.63;1.98;;;;;;;7.54;92.64;99466.13;4993949;28;20098;-75
2022/11/18 00:29:34;;;;;;;7.50;2.50;;;;;;;7.52;92.72;99475.81;4991083;28;20034;-75
2022/11/18 00:32:01;;;;;;;6.00;2.42;;;;;;;7.51;92.99;99476.72;4992932;28;20614;-75
2022/11/18 00:34:28;;;;;;;6.45;2.35;;;;;;;7.49;93.08;99478.53;4983653;28;20534;-75
2022/11/18 00:36:55;;;;;;;7.10;2.05;;;;;;;7.49;93.21;99484.66;4984575;28;20122;-75
2022/11/18 00:39:22;;;;;;;5.47;2.40;;;;;;;7.49;93.32;99484.66;4987436;28;20323;-75
2022/11/18 00:44:35;;;;;;;7.20;2.45;;;;;;;7.48;93.67;99485.56;4989927;28;20105;-74
2022/11/18 00:47:02;;;;;;;9.48;2.50;;;;;;;7.51;93.82;99487.22;5011986;28;20069;-76
2022/11/18 00:49:29;;;;;;;5.82;2.30;;;;;;;7.58;94.16;99493.94;5030639;28;20042;-75
2022/11/18 00:51:56;;;;;;;7.35;2.40;;;;;;;7.65;94.16;99491.91;5030947;28;20050;-74
2022/11/18 00:54:24;;;;;;;7.88;2.40;;;;;;;7.73;94.37;99502.97;5032366;28;20116;-74
2022/11/18 00:56:53;;;;;;;5.65;2.17;;;;;;;7.81;94.64;99508.75;5032474;28;20815;-74
2022/11/18 00:59:20;;;;;;;6.97;2.30;;;;;;;7.90;94.59;99505.75;5030646;28;20562;-74
2022/11/18 01:01:48;;;;;;;5.18;2.05;;;;;;;7.95;94.40;99502.97;5033515;28;20085;-74
2022/11/18 01:04:15;;;;;;;7.50;2.65;;;;;;;8.00;94.35;99502.75;5030723;28;20042;-74
2022/11/18 01:06:43;;;;;;;5.60;2.47;;;;;;;8.04;94.29;99506.94;5032189;28;20049;-75
2022/11/18 01:09:10;;;;;;;8.18;2.30;;;;;;;8.07;94.23;99504.22;5030870;28;20206;-76
2022/11/18 01:14:25;;;;;;;6.75;2.45;;;;;;;8.14;94.21;99515.31;5029263;28;20121;-75
2022/11/18 01:16:54;;;;;;;6.38;2.10;;;;;;;8.17;94.06;99516.03;5029941;28;20042;-76
2022/11/18 01:19:24;;;;;;;6.22;2.50;;;;;;;8.21;94.18;99530.75;5026748;28;20042;-76
2022/11/18 01:21:51;;;;;;;4.70;2.10;;;;;;;8.27;93.95;99521.78;5027362;28;20046;-75
2022/11/18 01:24:18;;;;;;;6.13;2.15;;;;;;;8.33;93.93;99532.00;5029011;28;20034;-75
2022/11/18 01:26:45;;;;;;;7.93;2.08;;;;;;;8.35;93.77;99531.94;5031136;28;20050;-76
2022/11/18 01:29:12;;;;;;;5.20;2.10;;;;;;;8.39;93.71;99538.78;5026788;28;20037;-76
2022/11/18 01:31:39;;;;;;;7.57;2.47;;;;;;;8.43;93.72;99529.00;5032059;28;20495;-75
2022/11/18 01:34:28;;;;;;;6.35;1.95;;;;;;;8.47;93.49;99533.22;5031507;28;20050;-76
2022/11/18 01:36:56;;;;;;;5.38;2.05;;;;;;;8.51;93.24;99538.28;5029740;28;20500;-73
2022/11/18 01:39:24;;;;;;;5.22;1.88;;;;;;;8.54;93.60;99542.56;5021788;28;20046;-74
2022/11/18 01:41:51;;;;;;;6.63;1.85;;;;;;;8.58;93.58;99548.53;5032271;28;20205;-73
2022/11/18 01:45:16;;;;;;;7.00;2.10;;;;;;;8.61;93.30;99548.41;5029401;28;20053;-74
2022/11/18 01:48:00;;;;;;;7.75;2.20;;;;;;;8.62;93.26;99550.13;5017963;28;20154;-75
2022/11/18 01:50:29;;;;;;;4.53;2.40;;;;;;;8.64;93.33;99553.53;5031853;28;20081;-75
2022/11/18 01:53:07;;;;;;;5.80;2.03;;;;;;;8.67;93.27;99558.66;5032153;28;20042;-75
2022/11/18 01:55:42;;;;;;;7.00;2.25;;;;;;;8.66;93.33;99555.19;5031395;28;20100;-76
2022/11/18 01:58:17;;;;;;;8.18;1.80;;;;;;;8.67;93.22;99556.88;5029698;28;20042;-76
2022/11/18 02:00:45;;;;;;;4.57;1.85;;;;;;;8.69;93.18;99557.69;5032386;28;20136;-75
2022/11/18 02:03:13;;;;;;;8.00;2.10;;;;;;;8.71;93.00;99562.88;5028297;28;20038;-74
2022/11/18 02:05:45;;;;;;;5.45;2.10;;;;;;;8.71;93.18;99562.88;5031022;28;20093;-75
2022/11/18 02:08:14;;;;;;;6.57;1.92;;;;;;;8.74;93.04;99568.00;5027926;28;20046;-74
2022/11/18 02:10:41;;;;;;;6.13;1.90;;;;;;;8.75;93.18;99567.03;5031399;28;20065;-74
2022/11/18 02:13:09;;;;;;;5.60;1.95;;;;;;;8.78;92.93;99566.09;5028210;28;20534;-74
2022/11/18 02:16:16;;;;;;;5.13;1.73;;;;;;;8.78;92.86;99572.19;5029314;28;20092;-74
2022/11/18 02:18:59;;;;;;;5.93;1.77;;;;;;;8.79;92.71;99570.41;4988623;28;20613;-74
2022/11/18 02:21:54;;;;;;;5.97;1.90;;;;;;;8.78;92.69;99580.06;5031347;28;20470;-74
2022/11/18 02:24:45;;;;;;;9.43;1.90;;;;;;;8.78;92.71;99580.06;5029824;28;20125;-74
2022/11/18 02:27:37;;;;;;;4.00;2.00;;;;;;;8.81;92.80;99579.06;5033553;28;20042;-74
2022/11/18 02:30:08;;;;;;;4.65;1.92;;;;;;;8.79;92.84;99586.19;5029867;28;20041;-75
2022/11/18 02:33:16;;;;;;;5.80;2.17;;;;;;;8.82;92.97;99596.53;5023236;28;20050;-75
2022/11/18 02:36:00;;;;;;;12.13;2.30;;;;;;;8.78;92.66;99593.19;5030315;28;20499;-73
2022/11/18 02:38:41;;;;;;;7.95;2.47;;;;;;;8.76;92.88;99592.41;5026658;28;20044;-74
2022/11/18 02:41:16;;;;;;;7.60;2.20;;;;;;;8.74;93.07;99601.28;5030246;28;20042;-75
2022/11/18 02:43:58;;;;;;;5.32;2.10;;;;;;;8.70;93.25;99590.06;5028561;28;20542;-74
2022/11/18 02:46:33;;;;;;;8.10;2.15;;;;;;;8.67;93.41;99591.03;5028611;28;20049;-74
2022/11/18 02:49:06;;;;;;;6.03;3.03;;;;;;;8.65;93.29;99592.88;5027635;28;20045;-74
2022/11/18 02:51:36;;;;;;;7.57;2.33;;;;;;;8.65;93.54;99592.88;5028886;28;20048;-73
2022/11/18 02:54:10;;;;;;;5.35;2.25;;;;;;;8.66;93.72;99593.72;5024822;28;20064;-73
2022/11/18 02:56:37;;;;;;;8.80;2.22;;;;;;;8.64;93.72;99596.41;5031715;28;20041;-73
2022/11/18 02:59:05;;;;;;;6.38;2.28;;;;;;;8.66;93.88;99596.34;5030765;28;20045;-73
2022/11/18 03:01:35;;;;;;;6.40;2.15;;;;;;;8.64;93.88;99590.31;5026958;28;20486;-73
2022/11/18 03:04:03;;;;;;;8.65;2.50;;;;;;;8.65;93.98;99592.00;5029907;28;20073;-74
2022/11/18 03:06:42;;;;;;;8.45;2.50;;;;;;;8.63;94.12;99596.50;5013142;28;20100;-74
2022/11/18 03:09:23;;;;;;;9.40;2.50;;;;;;;8.62;94.18;99610.53;5030458;28;20518;-74
2022/11/18 03:11:59;;;;;;;9.95;2.63;;;;;;;8.61;94.09;99614.09;5026889;28;20042;-75
2022/11/18 03:14:55;;;;;;;5.57;2.40;;;;;;;8.60;94.02;99613.22;5026193;28;20038;-75
2022/11/18 03:17:56;;;;;;;8.65;2.47;;;;;;;8.57;94.07;99616.00;5024666;28;20153;-75
2022/11/18 03:20:49;;;;;;;7.40;2.30;;;;;;;8.52;94.19;99626.69;5027898;28;20042;-75
2022/11/18 03:23:32;;;;;;;8.25;2.45;;;;;;;8.49;94.59;99618.94;5023963;28;20034;-74
2022/11/18 03:26:19;;;;;;;6.25;2.75;;;;;;;8.49;94.78;99629.44;5016584;28;20089;-74
2022/11/18 03:29:01;;;;;;;6.70;2.38;;;;;;;8.51;94.96;99635.47;5028417;28;20045;-74
2022/11/18 03:31:41;;;;;;;7.93;2.40;;;;;;;8.51;94.94;99632.88;5029117;28;20053;-74
2022/11/18 03:34:18;;;;;;;7.38;2.65;;;;;;;8.51;95.19;99638.13;5030249;28;20034;-74
2022/11/18 03:36:52;;;;;;;8.25;2.75;;;;;;;8.53;95.26;99640.66;5028198;28;20531;-75
2022/11/18 03:39:31;;;;;;;7.47;2.55;;;;;;;8.53;95.21;99653.81;5027373;28;20069;-75
2022/11/18 03:42:11;;;;;;;5.00;2.53;;;;;;;8.55;95.29;99660.69;5027473;28;20098;-75
2022/11/18 03:44:46;;;;;;;5.75;2.53;;;;;;;8.54;95.40;99653.75;5027102;28;20042;-72
2022/11/18 03:47:38;;;;;;;6.00;2.78;;;;;;;8.57;95.39;99657.16;5026570;28;20050;-72
2022/11/18 03:50:23;;;;;;;7.40;2.50;;;;;;;8.56;95.40;99664.19;5027246;28;20041;-73
2022/11/18 03:52:53;;;;;;;8.15;2.75;;;;;;;8.57;95.56;99662.41;5025459;28;20108;-73
2022/11/18 03:55:26;;;;;;;9.73;2.95;;;;;;;8.58;95.62;99665.00;5028247;28;20046;-73
2022/11/18 03:58:04;;;;;;;6.90;2.95;;;;;;;8.58;95.74;99670.25;5029046;28;20120;-72
2022/11/18 04:00:44;;;;;;;11.15;3.00;;;;;;;8.60;95.65;99668.38;5027718;28;20801;-71
2022/11/18 04:03:12;;;;;;;7.57;3.20;;;;;;;8.59;95.63;99666.72;5025926;28;20964;-71
2022/11/18 04:05:42;;;;;;;9.60;2.72;;;;;;;8.62;95.68;99670.97;5027935;28;20093;-71
2022/11/18 04:08:23;;;;;;;7.95;2.70;;;;;;;8.61;95.71;99679.78;5028903;28;20507;-71
2022/11/18 04:11:04;;;;;;;6.40;2.38;;;;;;;8.62;95.63;99677.06;5030856;28;20112;-72
2022/11/18 04:13:37;;;;;;;9.07;2.63;;;;;;;8.63;95.48;99681.41;5020941;28;20088;-73
2022/11/18 04:16:06;;;;;;;5.68;2.30;;;;;;;8.62;95.75;99676.22;5027776;28;20038;-72
2022/11/18 04:18:33;;;;;;;7.82;2.40;;;;;;;8.63;95.55;99681.41;5027536;28;20545;-72
2022/11/18 04:21:00;;;;;;;8.00;2.63;;;;;;;8.62;95.72;99679.69;5028693;28;20125;-74
2022/11/18 04:23:27;;;;;;;6.82;2.67;;;;;;;8.62;95.74;99690.19;5028206;28;20045;-73
2022/11/18 04:25:55;;;;;;;7.97;2.58;;;;;;;8.62;95.74;99687.56;5027871;28;20088;-74
2022/11/18 04:28:22;;;;;;;10.73;2.63;;;;;;;8.61;95.66;99690.28;5028844;28;20466;-76
2022/11/18 04:30:49;;;;;;;9.27;2.90;;;;;;;8.59;95.64;99706.09;5028830;28;20473;-76
2022/11/18 04:33:16;;;;;;;7.63;3.25;;;;;;;8.58;95.86;99698.28;5028668;28;20046;-76
2022/11/18 04:35:45;;;;;;;8.27;3.20;;;;;;;8.60;95.72;99702.53;5029653;28;20052;-76
2022/11/18 04:38:12;;;;;;;9.68;2.70;;;;;;;8.60;95.56;99710.41;5025459;28;20044;-76
2022/11/18 04:40:47;;;;;;;6.75;2.60;;;;;;;8.60;95.63;99717.47;5029364;28;20084;-76
2022/11/18 04:43:14;;;;;;;12.32;3.85;;;;;;;8.62;95.68;99720.88;5026911;28;20149;-76
2022/11/18 04:45:41;;;;;;;5.53;2.70;;;;;;;8.63;95.75;99718.19;5026798;28;20132;-77
2022/11/18 04:48:08;;;;;;;13.48;3.08;;;;;;;8.64;95.77;99724.31;5026531;28;20049;-76
2022/11/18 04:50:35;;;;;;;9.10;2.50;;;;;;;8.65;95.73;99723.38;5026809;28;20096;-73
2022/11/18 04:53:02;;;;;;;6.38;2.55;;;;;;;8.66;95.72;99728.59;5028166;28;20054;-73
2022/11/18 04:55:29;;;;;;;5.10;2.70;;;;;;;8.67;95.72;99732.94;5027744;28;20038;-73
2022/11/18 04:57:56;;;;;;;11.00;2.67;;;;;;;8.68;95.83;99736.41;5024918;28;20038;-73
2022/11/18 05:00:23;;;;;;;8.65;2.70;;;;;;;8.69;95.77;99741.59;5031957;28;20052;-72
2022/11/18 05:02:52;;;;;;;10.07;2.65;;;;;;;8.69;95.77;99744.25;5030876;28;20436;-73
2022/11/18 05:05:19;;;;;;;5.93;2.72;;;;;;;8.69;95.58;99744.25;5031891;28;20045;-73
2022/11/18 05:07:46;;;;;;;8.38;3.00;;;;;;;8.70;95.81;99752.97;5030618;28;20519;-74
2022/11/18 05:10:13;;;;;;;7.78;3.25;;;;;;;8.69;95.46;99754.75;5032785;28;20045;-74
2022/11/18 05:12:51;;;;;;;8.90;2.65;;;;;;;8.69;95.73;99765.25;5030906;28;20049;-73
2022/11/18 05:15:22;;;;;;;6.85;2.50;;;;;;;8.67;95.56;99763.59;5031028;28;20537;-73
2022/11/18 05:17:50;;;;;;;2.92;2.20;;;;;;;8.67;95.56;99767.09;5030031;28;20132;-74
2022/11/18 05:20:17;;;;;;;6.47;2.35;;;;;;;8.66;95.55;99768.00;5043695;28;20038;-74
2022/11/18 05:22:44;;;;;;;4.57;2.30;;;;;;;8.65;95.50;99765.41;5034107;28;20037;-74
2022/11/18 05:25:11;;;;;;;6.90;2.70;;;;;;;8.64;95.70;99768.97;5031548;28;20077;-74
2022/11/18 05:27:38;;;;;;;6.20;2.80;;;;;;;8.64;95.79;99774.25;5038453;28;20148;-74
2022/11/18 05:30:06;;;;;;;5.28;2.40;;;;;;;8.64;95.88;99774.25;5039417;28;20053;-74
2022/11/18 05:32:33;;;;;;;10.18;2.80;;;;;;;8.63;95.75;99777.78;5030539;28;20129;-74
2022/11/18 05:35:00;;;;;;;6.30;2.50;;;;;;;8.62;95.94;99773.44;5032024;28;20096;-73
2022/11/18 05:37:27;;;;;;;6.60;2.60;;;;;;;8.61;95.79;99769.09;5026598;28;20097;-74
2022/11/18 05:39:54;;;;;;;4.30;2.53;;;;;;;8.59;95.94;99777.03;5038331;28;20140;-74
2022/11/18 05:45:08;;;;;;;7.50;2.60;;;;;;;8.55;95.94;99789.41;5031260;28;20042;-74
2022/11/18 05:47:58;;;;;;;6.50;2.63;;;;;;;8.53;95.72;99786.00;5023949;28;20062;-74
2022/11/18 05:50:22;;;;;;;6.35;2.65;;;;;;;8.49;95.58;99794.91;5005641;28;20089;-71
2022/11/18 05:52:50;;;;;;;8.38;2.30;;;;;;;8.46;95.57;99791.53;5004798;28;20070;-71
2022/11/18 05:55:20;;;;;;;6.80;2.38;;;;;;;8.40;95.37;99796.09;5011358;28;20045;-72
2022/11/18 05:57:48;;;;;;;7.40;2.60;;;;;;;8.36;95.51;99801.50;5013858;28;20146;-72
2022/11/18 06:00:17;;;;;;;8.60;2.92;;;;;;;8.31;95.35;99806.94;5005229;28;20061;-71
2022/11/18 06:02:49;;;;;;;6.43;2.50;;;;;;;8.28;95.71;99803.56;5016894;28;20302;-71
2022/11/18 06:05:20;;;;;;;8.40;2.55;;;;;;;8.24;95.63;99802.84;5008226;28;20070;-71
2022/11/18 06:07:47;;;;;;;7.15;2.65;;;;;;;8.21;95.66;99806.44;5007207;28;20046;-71
2022/11/18 06:10:26;;;;;;;5.75;2.90;;;;;;;8.25;95.91;99807.19;5007212;28;20050;-71
2022/11/18 06:12:59;;;;;;;6.60;2.65;;;;;;;8.28;95.92;99809.69;5018222;28;20117;-71
2022/11/18 06:15:39;;;;;;;6.38;2.53;;;;;;;8.29;95.73;99807.91;5005918;28;20049;-71
2022/11/18 06:18:30;;;;;;;8.27;2.47;;;;;;;8.23;95.33;99811.63;5006134;28;20047;-71
2022/11/18 06:21:04;;;;;;;7.13;2.45;;;;;;;8.16;95.02;99824.13;5009568;28;20058;-71
2022/11/18 06:23:39;;;;;;;8.60;5.40;;;;;;;8.07;94.88;99829.69;5008136;28;20051;-71
2022/11/18 06:26:08;;;;;;;6.28;2.55;;;;;;;7.96;94.76;99839.72;4992179;28;20042;-72
2022/11/18 06:28:38;;;;;;;9.02;2.95;;;;;;;7.83;94.58;99831.44;5011651;28;20884;-73
2022/11/18 06:31:05;;;;;;;5.88;2.47;;;;;;;7.71;94.58;99840.59;5008993;28;20069;-71
2022/11/18 06:33:34;;;;;;;5.43;2.47;;;;;;;7.58;94.65;99843.63;5008262;28;20141;-72
2022/11/18 06:36:04;;;;;;;8.23;2.63;;;;;;;7.46;94.63;99850.16;5011778;28;20041;-72
2022/11/18 06:38:34;;;;;;;7.47;2.92;;;;;;;7.38;94.90;99853.94;5006448;28;20883;-72
2022/11/18 06:41:02;;;;;;;8.20;2.70;;;;;;;7.29;94.91;99852.44;5008628;28;20047;-71
2022/11/18 06:43:42;;;;;;;7.55;2.72;;;;;;;7.22;95.24;99857.06;5008849;28;20105;-72
2022/11/18 06:49:02;;;;;;;7.30;2.80;;;;;;;7.09;95.49;99867.06;5022467;28;20144;-72
2022/11/18 06:51:30;;;;;;;7.95;2.50;;;;;;;7.04;95.60;99871.59;5025478;28;20084;-72
2022/11/18 06:53:58;;;;;;;6.80;2.92;;;;;;;7.00;95.74;99877.84;5016339;28;20042;-72
2022/11/18 06:56:26;;;;;;;7.30;3.30;;;;;;;6.98;96.03;99882.25;5029679;28;20050;-73
2022/11/18 06:58:57;;;;;;;7.28;2.90;;;;;;;6.98;96.27;99884.88;5036876;28;20570;-72
2022/11/18 07:01:34;;;;;;;10.68;3.55;;;;;;;6.97;96.22;99883.16;5033252;28;20041;-72
2022/11/18 07:04:03;;;;;;;6.30;3.42;;;;;;;6.95;96.16;99888.44;5028827;28;20459;-72
2022/11/18 07:06:33;;;;;;;9.45;3.33;;;;;;;6.95;96.20;99895.47;5031677;28;20096;-72
2022/11/18 07:09:04;;;;;;;8.38;3.72;;;;;;;6.93;96.25;99900.75;5035224;28;20046;-71
2022/11/18 07:11:32;;;;;;;9.60;3.70;;;;;;;6.90;96.34;99897.34;5030062;28;20037;-72
2022/11/18 07:14:07;;;;;;;8.43;3.63;;;;;;;6.87;96.17;99903.56;5030860;28;20050;-72
2022/11/18 07:16:35;;;;;;;5.82;3.22;;;;;;;6.84;96.46;99907.13;5033436;28;20050;-72
2022/11/18 07:19:11;;;;;;;10.35;4.13;;;;;;;6.84;96.49;99916.75;5030536;28;20049;-71
2022/11/18 07:21:39;;;;;;;12.18;5.35;;;;;;;6.79;96.34;99914.25;5030536;28;20048;-72
2022/11/18 07:24:08;;;;;;;13.75;6.68;;;;;;;6.78;96.51;99923.00;5028006;28;20049;-71
2022/11/18 07:26:35;;;;;;;14.85;8.70;;;;;;;6.76;96.67;99924.84;5033207;28;20042;-72
2022/11/18 07:29:03;;;;;;;15.18;8.15;;;;;;;6.75;96.65;99925.75;5031882;28;20073;-71
2022/11/18 07:31:31;;;;;;;19.60;11.30;;;;;;;6.75;96.78;99930.09;5029667;28;20053;-71
2022/11/18 07:33:58;;;;;;;13.52;7.30;;;;;;;6.72;96.87;99923.22;5030813;28;20073;-71
2022/11/18 07:36:28;;;;;;;10.32;6.53;;;;;;;6.72;96.77;99931.06;5032687;28;20046;-71
2022/11/18 07:39:05;;;;;;;10.25;4.82;;;;;;;6.70;96.79;99938.09;5037919;28;20133;-72
2022/11/18 07:41:34;;;;;;;10.95;6.25;;;;;;;6.71;96.82;99937.19;5022981;28;20488;-72
2022/11/18 07:44:03;;;;;;;11.30;7.78;;;;;;;6.73;96.87;99934.53;5031468;28;20042;-72
2022/11/18 07:46:34;;;;;;;22.83;16.83;;;;;;;6.75;96.76;99949.31;5030534;28;21919;-72
2022/11/18 07:49:06;;;;;;;18.67;12.63;;;;;;;6.75;96.91;99953.69;5030437;28;20061;-72
2022/11/18 07:51:37;;;;;;;14.57;7.90;;;;;;;6.80;97.13;99957.03;5029689;28;20191;-72
2022/11/18 07:54:11;;;;;;;12.80;7.30;;;;;;;6.87;97.14;99962.97;5011425;28;20372;-72
2022/11/18 07:56:38;;;;;;;15.85;7.97;;;;;;;6.92;97.17;99969.75;5030383;28;20038;-72
2022/11/18 07:59:06;;;;;;;10.63;6.05;;;;;;;6.98;97.19;99971.34;5030391;28;20046;-71
2022/11/18 08:01:34;;;;;;;9.15;5.60;;;;;;;7.05;97.10;99974.66;5030583;28;20050;-71
2022/11/18 08:04:08;;;;;;;11.10;6.55;;;;;;;7.12;97.19;99984.06;5030166;28;20938;-72
2022/11/18 08:06:37;;;;;;;7.03;5.15;;;;;;;7.19;97.28;99979.47;5026164;28;20042;-72
2022/11/18 08:09:06;;;;;;;7.90;5.10;;;;;;;7.27;97.17;99988.84;5028629;28;20045;-72
2022/11/18 08:11:33;;;;;;;9.88;6.18;;;;;;;7.35;97.23;99986.00;5029980;28;20133;-72
2022/11/18 08:14:00;;;;;;;9.95;5.63;;;;;;;7.42;97.08;99990.13;5024688;28;20053;-71
2022/11/18 08:16:28;;;;;;;12.68;6.25;;;;;;;7.49;97.42;99997.81;5021809;28;20049;-71
2022/11/18 08:18:59;;;;;;;13.70;4.85;;;;;;;7.56;97.39;99999.34;5026119;28;20042;-71
2022/11/18 08:21:27;;;;;;;8.60;5.30;;;;;;;7.65;97.49;99995.56;5024440;28;20038;-71
2022/11/18 08:23:57;;;;;;;12.27;5.70;;;;;;;7.76;97.32;100004.84;5029765;28;20462;-71
2022/11/18 08:26:26;;;;;;;8.63;4.63;;;;;;;7.84;97.32;100007.19;5025811;28;20134;-72
2022/11/18 08:28:54;;;;;;;9.80;4.13;;;;;;;7.96;97.12;100007.69;5020805;28;20092;-72
2022/11/18 08:31:25;;;;;;;6.25;3.42;;;;;;;8.06;96.81;100010.00;5031871;28;20104;-72
2022/11/18 08:33:57;;;;;;;9.52;4.07;;;;;;;8.11;96.46;100007.22;5032317;28;20066;-72
2022/11/18 08:36:28;;;;;;;6.63;4.22;;;;;;;8.11;96.38;100015.09;5033492;28;20065;-73
2022/11/18 08:38:57;;;;;;;8.60;3.67;;;;;;;8.10;96.28;100018.63;5026714;28;20050;-72
2022/11/18 08:41:49;;;;;;;8.68;3.38;;;;;;;8.11;95.86;100016.84;5033471;28;20092;-73
2022/11/18 08:44:16;;;;;;;9.55;3.53;;;;;;;8.08;95.79;100013.44;5033163;28;20045;-73
2022/11/18 08:46:44;;;;;;;6.72;3.42;;;;;;;8.05;95.82;100010.03;5032209;28;20046;-72
2022/11/18 08:49:12;;;;;;;6.15;3.40;;;;;;;8.04;95.39;100013.56;5017966;28;20480;-72
2022/11/18 08:51:39;;;;;;;6.30;3.70;;;;;;;8.03;95.51;100014.50;5032873;28;20046;-73
2022/11/18 08:54:06;;;;;;;7.70;3.55;;;;;;;8.01;95.29;100014.50;5031302;28;20529;-72
2022/11/18 08:56:33;;;;;;;4.70;3.17;;;;;;;8.01;95.33;100017.13;5027268;28;20125;-73
2022/11/18 08:59:00;;;;;;;8.80;3.67;;;;;;;8.07;95.17;100019.59;5026867;28;20046;-74
2022/11/18 09:01:27;;;;;;;10.18;4.20;;;;;;;8.14;95.02;100019.38;5036038;28;20045;-74
2022/11/18 09:03:56;;;;;;;7.85;3.50;;;;;;;8.24;95.10;100016.38;5041188;28;20480;-73
2022/11/18 09:06:24;;;;;;;8.43;3.33;;;;;;;8.39;95.19;100016.78;5032410;28;20046;-73
2022/11/18 09:08:52;;;;;;;6.05;3.25;;;;;;;8.52;95.09;100025.09;5028901;28;20042;-73
2022/11/18 09:11:25;;;;;;;8.20;3.30;;;;;;;8.66;94.82;100027.25;5032630;28;20046;-74
2022/11/18 09:13:58;;;;;;;8.05;3.28;;;;;;;8.80;94.66;100030.25;5032972;28;20124;-73
2022/11/18 09:16:45;;;;;;;7.35;3.30;;;;;;;8.93;94.43;100033.28;5033091;28;20038;-73
2022/11/18 09:19:14;;;;;;;10.70;3.97;;;;;;;9.05;93.84;100036.38;5032570;28;20046;-74
2022/11/18 09:22:03;;;;;;;6.88;3.30;;;;;;;9.16;93.32;100040.31;5032049;28;20046;-73
2022/11/18 09:24:32;;;;;;;7.97;3.72;;;;;;;9.26;93.24;100047.91;5030993;28;20507;-74
2022/11/18 09:27:03;;;;;;;6.72;3.45;;;;;;;9.38;92.84;100057.09;5031751;28;20045;-74
2022/11/18 09:29:32;;;;;;;5.95;3.47;;;;;;;9.44;92.43;100046.31;5028452;28;20038;-74
2022/11/18 09:32:00;;;;;;;7.72;3.00;;;;;;;9.43;92.29;100050.75;5031881;28;20073;-73
2022/11/18 09:34:28;;;;;;;6.07;3.40;;;;;;;9.42;92.28;100053.41;5030232;28;20061;-74
2022/11/18 09:36:55;;;;;;;7.60;3.25;;;;;;;9.46;91.87;100060.28;5032679;28;20033;-73
2022/11/18 09:39:24;;;;;;;7.85;3.08;;;;;;;9.46;91.66;100058.50;5031514;28;20042;-73
2022/11/18 09:42:27;;;;;;;7.63;3.30;;;;;;;9.46;91.76;100068.19;5031283;28;20044;-74
2022/11/18 09:45:29;;;;;;;6.25;3.00;;;;;;;9.45;91.61;100069.09;5023994;28;20455;-73
2022/11/18 09:48:02;;;;;;;6.40;3.20;;;;;;;9.44;91.62;100070.88;5030492;28;20081;-73
2022/11/18 09:50:29;;;;;;;8.85;3.25;;;;;;;9.50;91.25;100058.38;5031480;28;20041;-73
2022/11/18 09:53:23;;;;;;;7.53;3.42;;;;;;;9.53;91.14;100067.00;5032099;28;20049;-74
2022/11/18 09:55:53;;;;;;;10.70;3.20;;;;;;;9.56;90.96;100069.53;5025239;28;20069;-73
2022/11/18 09:58:33;;;;;;;13.15;3.90;;;;;;;9.58;91.01;100072.09;5030221;28;20132;-73
2022/11/18 10:01:03;;;;;;;8.38;3.10;;;;;;;9.60;90.47;100068.53;5030383;28;20061;-73
2022/11/18 10:03:32;;;;;;;7.38;3.47;;;;;;;9.64;90.78;100074.53;5029993;28;20038;-73
2022/11/18 10:06:20;;;;;;;5.85;3.15;;;;;;;9.67;90.77;100084.06;5030718;28;20067;-73
2022/11/18 10:09:22;;;;;;;9.30;3.80;;;;;;;9.74;90.57;100088.16;5022876;28;20579;-73
2022/11/18 10:12:41;;;;;;;8.32;3.10;;;;;;;9.84;90.57;100088.66;5031034;28;20507;-73
2022/11/18 10:15:31;;;;;;;6.10;2.60;;;;;;;9.99;90.67;100100.38;5032024;28;20522;-73
2022/11/18 10:18:47;;;;;;;6.75;2.83;;;;;;;10.10;90.68;100099.03;5026930;28;20042;-73
2022/11/18 10:21:46;;;;;;;8.63;3.00;;;;;;;10.28;90.12;100101.81;4995165;28;20108;-73
2022/11/18 10:24:31;;;;;;;9.60;3.80;;;;;;;10.40;89.75;100103.97;5020560;28;20046;-73
2022/11/18 10:26:59;;;;;;;13.38;3.08;;;;;;;10.52;89.11;100100.00;5032211;28;20049;-73
2022/11/18 10:29:27;;;;;;;9.65;3.13;;;;;;;10.64;89.08;100118.84;5032023;28;20046;-73
2022/11/18 10:32:07;;;;;;;6.90;3.22;;;;;;;10.77;88.95;100116.56;5031694;28;20046;-73
2022/11/18 10:34:50;;;;;;;7.38;2.30;;;;;;;11.03;88.42;100115.44;5031571;28;20048;-73
2022/11/18 10:37:29;;;;;;;7.50;2.70;;;;;;;11.18;88.26;100117.38;5032230;28;20050;-73
2022/11/18 10:40:29;;;;;;;5.75;2.85;;;;;;;11.32;87.95;100126.47;5032364;28;20037;-73
2022/11/18 10:42:56;;;;;;;8.18;3.00;;;;;;;11.37;87.58;100129.75;5032094;28;20046;-73
2022/11/18 10:45:29;;;;;;;9.45;2.47;;;;;;;11.37;87.02;100129.75;5032395;28;20042;-73
2022/11/18 10:48:17;;;;;;;8.93;2.67;;;;;;;11.47;86.42;100130.19;5031854;28;20066;-73
2022/11/18 10:50:48;;;;;;;5.03;2.75;;;;;;;11.46;85.72;100131.13;5030307;28;20931;-73
2022/11/18 10:53:36;;;;;;;10.82;2.80;;;;;;;11.50;85.56;100133.56;5024035;28;20044;-73
2022/11/18 10:56:16;;;;;;;6.60;2.33;;;;;;;11.53;85.63;100142.25;5031751;28;20120;-73
2022/11/18 10:58:49;;;;;;;7.07;2.10;;;;;;;11.53;84.72;100142.25;5032094;28;20117;-73
2022/11/18 11:01:23;;;;;;;8.35;2.45;;;;;;;11.54;84.58;100144.81;5031761;28;20045;-73
2022/11/18 11:04:11;;;;;;;7.47;2.45;;;;;;;11.60;84.57;100144.53;5031522;28;20038;-73
2022/11/18 11:06:39;;;;;;;7.45;2.58;;;;;;;11.69;85.18;100145.91;5021522;28;20042;-73
2022/11/18 11:09:12;;;;;;;8.38;2.58;;;;;;;11.81;85.36;100147.97;5031592;28;20045;-73
2022/11/18 11:12:16;;;;;;;9.77;2.40;;;;;;;11.92;84.81;100146.63;5030576;28;20054;-73
2022/11/18 11:15:02;;;;;;;8.25;2.63;;;;;;;11.86;84.65;100138.97;5035805;28;20601;-73
2022/11/18 11:20:42;;;;;;;6.95;2.65;;;;;;;11.68;83.84;100140.72;5029282;28;20053;-74
2022/11/18 11:23:11;;;;;;;7.07;2.38;;;;;;;11.71;84.16;100145.81;5025706;28;20057;-74
2022/11/18 11:25:56;;;;;;;5.78;2.10;;;;;;;11.79;84.15;100141.06;5029299;28;20053;-74
2022/11/18 11:29:37;;;;;;;8.25;1.98;;;;;;;11.91;83.75;100140.47;5025364;28;20065;-74
2022/11/18 11:32:43;;;;;;;9.98;1.90;;;;;;;11.91;83.51;100160.75;4975708;28;20914;-74
2022/11/18 11:35:27;;;;;;;8.68;2.28;;;;;;;12.02;83.20;100149.72;5030784;28;20486;-74
2022/11/18 11:38:11;;;;;;;9.48;2.55;;;;;;;12.01;82.25;100153.28;5030436;28;20054;-75
2022/11/18 11:41:01;;;;;;;16.15;2.30;;;;;;;12.04;82.55;100148.72;5030472;28;20510;-74
2022/11/18 11:43:50;;;;;;;6.55;2.00;;;;;;;12.17;82.16;100154.28;5035177;28;20558;-74
2022/11/18 11:50:01;;;;;;;9.85;2.03;;;;;;;12.11;79.89;100158.06;5023117;28;20053;-74
2022/11/18 11:52:59;;;;;;;43.88;27.08;;;;;;;12.07;80.96;100156.50;5029354;28;20053;-73
2022/11/18 11:55:51;;;;;;;7.30;2.78;;;;;;;12.04;81.44;100151.38;5026501;28;20042;-74
2022/11/18 11:59:08;;;;;;;8.40;2.10;;;;;;;12.07;81.33;100143.28;5026932;28;20045;-74
2022/11/18 12:02:13;;;;;;;9.27;2.83;;;;;;;12.11;81.44;100155.44;5030942;28;20049;-73
2022/11/18 12:04:55;;;;;;;11.98;2.60;;;;;;;12.25;80.69;100157.41;5027446;28;20042;-73
2022/11/18 12:07:38;;;;;;;30.55;22.60;;;;;;;12.33;79.66;100156.16;5034114;28;20491;-73
2022/11/18 12:10:30;;;;;;;6.70;2.15;;;;;;;12.39;79.97;100162.00;5034500;28;20044;-73
2022/11/18 12:13:23;;;;;;;11.05;2.03;;;;;;;12.44;77.85;100161.78;5033818;28;20057;-73
2022/11/18 12:16:11;;;;;;;10.07;2.30;;;;;;;12.42;78.81;100158.34;5033921;28;20042;-73
2022/11/18 12:18:58;;;;;;;10.55;2.42;;;;;;;12.46;79.03;100153.81;5033620;28;20214;-74
2022/11/18 12:21:46;;;;;;;9.90;3.42;;;;;;;12.66;79.11;100153.69;5032141;28;20093;-73
2022/11/18 12:24:29;;;;;;;7.15;2.58;;;;;;;12.67;78.76;100143.94;5014537;28;20060;-73
2022/11/18 12:27:12;;;;;;;99.65;47.25;;;;;;;12.73;78.94;100156.84;5027813;28;20038;-74
2022/11/18 12:29:43;;;;;;;21.10;7.43;;;;;;;12.79;79.16;100159.19;5032525;28;20053;-75
2022/11/18 12:32:33;;;;;;;8.70;3.45;;;;;;;12.86;78.87;100159.75;5040251;28;20878;-74
2022/11/18 12:35:20;;;;;;;10.27;5.85;;;;;;;12.86;77.66;100170.31;5032465;28;20100;-75